Decoded Metar for KSSF (S ANTONIO/STINSN in TX, USA) (IATA:SSF) | Meteo·Mobile Aviation Weather
aviador You're here:

KSSF Decoded Metar

S ANTONIO/STINSN in TX, USA
Report Time2018-10-20 20:06:00
UTC Time2018-10-20 21:00:09
Flight Rules mvfr MVFR
Wind020° at 08 kt
W.Decomp.*RWY 32: 4.9 kt HW 6.3 kt RCW
RWY 09: 1.7 kt HW 7.8 kt LCW
W.Rank020° ranks 7
Current wind is above 020° avg. (7.5)
Visibility9999 m
Phenomena:N/A
Clouds:Broken 023 Hf
Broken 055 Hf
Broken 080 Hf
Expected CloudBase > 3,200 ft AGL from Temp-Dew spread
Ceiling2,300 ft
Temp24°C (ISA +10)
Dew Point16°C (61% RH)
AAT23.1°C
QNH1020 hPa
Density Alt1,762 ft
Elevation577 ft
Report Wrong Elevation
Raw Report
KSSF 202006Z 02008KT 10SM BKN023 BKN055 BKN080 24/16 A3012 RMK AO2
T02390156=

Extra information for KSSF:More info

Metar Taf Metar & Taf Last 4 Metars F.Rules Stats Wind Profile Meteogram Temp Stats Airport Information Weather charts Add Link Nearby VenuesMetar ALERT Operation Metar Decoded Social comments

AIRNAV info for KSSF